sensor_id;sensor_type;location;lat;lon;timestamp;P1;durP1;ratioP1;P2;durP2;ratioP2
9306;SDS011;4691;47.612;7.610;2023-08-21T00:02:24;19.17;;;15.45;;
9306;SDS011;4691;47.612;7.610;2023-08-21T00:04:52;22.33;;;15.27;;
9306;SDS011;4691;47.612;7.610;2023-08-21T00:07:18;23.15;;;15.40;;
9306;SDS011;4691;47.612;7.610;2023-08-21T00:09:43;22.35;;;16.25;;
9306;SDS011;4691;47.612;7.610;2023-08-21T00:12:08;25.77;;;16.02;;
9306;SDS011;4691;47.612;7.610;2023-08-21T00:14:34;22.13;;;15.80;;
9306;SDS011;4691;47.612;7.610;2023-08-21T00:16:59;22.35;;;15.60;;
9306;SDS011;4691;47.612;7.610;2023-08-21T00:19:24;26.35;;;16.08;;
9306;SDS011;4691;47.612;7.610;2023-08-21T00:21:50;18.50;;;15.27;;
9306;SDS011;4691;47.612;7.610;2023-08-21T00:24:15;21.27;;;15.55;;
9306;SDS011;4691;47.612;7.610;2023-08-21T00:26:41;20.50;;;15.88;;
9306;SDS011;4691;47.612;7.610;2023-08-21T00:29:06;23.38;;;15.88;;
9306;SDS011;4691;47.612;7.610;2023-08-21T00:31:31;21.67;;;15.55;;
9306;SDS011;4691;47.612;7.610;2023-08-21T00:33:56;21.20;;;14.98;;
9306;SDS011;4691;47.612;7.610;2023-08-21T00:36:22;24.83;;;15.15;;
9306;SDS011;4691;47.612;7.610;2023-08-21T00:38:47;21.73;;;15.27;;
9306;SDS011;4691;47.612;7.610;2023-08-21T00:41:13;24.88;;;15.90;;
9306;SDS011;4691;47.612;7.610;2023-08-21T00:43:38;19.83;;;15.40;;
9306;SDS011;4691;47.612;7.610;2023-08-21T00:46:04;18.98;;;15.20;;
9306;SDS011;4691;47.612;7.610;2023-08-21T00:48:30;21.58;;;15.75;;
9306;SDS011;4691;47.612;7.610;2023-08-21T00:50:56;26.08;;;16.13;;
9306;SDS011;4691;47.612;7.610;2023-08-21T00:53:21;22.65;;;15.05;;
9306;SDS011;4691;47.612;7.610;2023-08-21T00:55:46;25.75;;;15.25;;
9306;SDS011;4691;47.612;7.610;2023-08-21T00:58:12;23.63;;;15.43;;
9306;SDS011;4691;47.612;7.610;2023-08-21T01:00:38;20.90;;;15.20;;
9306;SDS011;4691;47.612;7.610;2023-08-21T01:03:04;21.80;;;15.32;;
9306;SDS011;4691;47.612;7.610;2023-08-21T01:05:29;24.45;;;15.57;;
9306;SDS011;4691;47.612;7.610;2023-08-21T01:08:02;20.00;;;15.90;;
9306;SDS011;4691;47.612;7.610;2023-08-21T01:13:02;23.88;;;16.33;;
9306;SDS011;4691;47.612;7.610;2023-08-21T01:15:51;19.35;;;15.82;;
9306;SDS011;4691;47.612;7.610;2023-08-21T01:18:19;22.92;;;16.80;;
9306;SDS011;4691;47.612;7.610;2023-08-21T01:20:46;25.75;;;16.98;;
9306;SDS011;4691;47.612;7.610;2023-08-21T01:23:26;21.92;;;16.42;;
9306;SDS011;4691;47.612;7.610;2023-08-21T01:25:53;23.67;;;15.52;;
9306;SDS011;4691;47.612;7.610;2023-08-21T01:28:18;22.52;;;16.08;;
9306;SDS011;4691;47.612;7.610;2023-08-21T01:30:43;21.45;;;16.38;;
9306;SDS011;4691;47.612;7.610;2023-08-21T01:33:10;21.50;;;15.95;;
9306;SDS011;4691;47.612;7.610;2023-08-21T01:35:38;26.13;;;16.33;;
9306;SDS011;4691;47.612;7.610;2023-08-21T01:38:03;23.23;;;17.38;;
9306;SDS011;4691;47.612;7.610;2023-08-21T01:40:29;26.60;;;17.23;;
9306;SDS011;4691;47.612;7.610;2023-08-21T01:42:54;28.15;;;17.40;;
9306;SDS011;4691;47.612;7.610;2023-08-21T01:45:20;27.02;;;17.10;;
9306;SDS011;4691;47.612;7.610;2023-08-21T01:47:46;27.13;;;17.95;;
9306;SDS011;4691;47.612;7.610;2023-08-21T01:50:11;27.85;;;18.45;;
9306;SDS011;4691;47.612;7.610;2023-08-21T01:52:36;28.23;;;18.23;;
9306;SDS011;4691;47.612;7.610;2023-08-21T01:55:02;25.30;;;17.70;;
9306;SDS011;4691;47.612;7.610;2023-08-21T01:57:28;24.27;;;16.95;;
9306;SDS011;4691;47.612;7.610;2023-08-21T01:59:54;29.77;;;17.92;;
9306;SDS011;4691;47.612;7.610;2023-08-21T02:02:19;27.88;;;17.27;;
9306;SDS011;4691;47.612;7.610;2023-08-21T02:04:44;27.35;;;18.60;;
9306;SDS011;4691;47.612;7.610;2023-08-21T02:07:09;26.52;;;18.63;;
9306;SDS011;4691;47.612;7.610;2023-08-21T02:09:35;26.95;;;18.42;;
9306;SDS011;4691;47.612;7.610;2023-08-21T02:12:00;28.98;;;17.90;;
9306;SDS011;4691;47.612;7.610;2023-08-21T02:14:25;31.55;;;19.60;;
9306;SDS011;4691;47.612;7.610;2023-08-21T02:19:32;33.30;;;18.77;;
9306;SDS011;4691;47.612;7.610;2023-08-21T02:21:57;28.13;;;17.90;;
9306;SDS011;4691;47.612;7.610;2023-08-21T02:24:22;29.00;;;19.33;;
9306;SDS011;4691;47.612;7.610;2023-08-21T02:26:48;27.58;;;18.80;;
9306;SDS011;4691;47.612;7.610;2023-08-21T02:29:13;29.92;;;19.05;;
9306;SDS011;4691;47.612;7.610;2023-08-21T02:31:38;26.15;;;19.42;;
9306;SDS011;4691;47.612;7.610;2023-08-21T02:34:03;28.77;;;19.77;;
9306;SDS011;4691;47.612;7.610;2023-08-21T02:36:29;30.90;;;18.75;;
9306;SDS011;4691;47.612;7.610;2023-08-21T02:38:55;34.33;;;18.45;;
9306;SDS011;4691;47.612;7.610;2023-08-21T02:41:20;26.25;;;18.48;;
9306;SDS011;4691;47.612;7.610;2023-08-21T02:43:46;27.88;;;18.83;;
9306;SDS011;4691;47.612;7.610;2023-08-21T02:46:11;28.83;;;18.60;;
9306;SDS011;4691;47.612;7.610;2023-08-21T02:48:36;26.77;;;18.35;;
9306;SDS011;4691;47.612;7.610;2023-08-21T02:51:02;25.77;;;18.30;;
9306;SDS011;4691;47.612;7.610;2023-08-21T02:53:28;27.80;;;18.83;;
9306;SDS011;4691;47.612;7.610;2023-08-21T02:55:53;32.15;;;18.85;;
9306;SDS011;4691;47.612;7.610;2023-08-21T02:58:18;31.67;;;18.55;;
9306;SDS011;4691;47.612;7.610;2023-08-21T03:00:44;29.05;;;19.42;;
9306;SDS011;4691;47.612;7.610;2023-08-21T03:03:09;28.67;;;20.00;;
9306;SDS011;4691;47.612;7.610;2023-08-21T03:05:36;30.27;;;19.13;;
9306;SDS011;4691;47.612;7.610;2023-08-21T03:08:01;30.70;;;19.17;;
9306;SDS011;4691;47.612;7.610;2023-08-21T03:10:26;30.33;;;18.25;;
9306;SDS011;4691;47.612;7.610;2023-08-21T03:12:53;29.13;;;19.42;;
9306;SDS011;4691;47.612;7.610;2023-08-21T03:15:19;23.92;;;18.38;;
9306;SDS011;4691;47.612;7.610;2023-08-21T03:17:45;26.08;;;17.85;;
9306;SDS011;4691;47.612;7.610;2023-08-21T03:20:10;26.80;;;18.17;;
9306;SDS011;4691;47.612;7.610;2023-08-21T03:22:36;25.48;;;18.42;;
9306;SDS011;4691;47.612;7.610;2023-08-21T03:25:01;36.67;;;20.30;;
9306;SDS011;4691;47.612;7.610;2023-08-21T03:27:26;27.88;;;18.50;;
9306;SDS011;4691;47.612;7.610;2023-08-21T03:29:52;28.23;;;19.73;;
9306;SDS011;4691;47.612;7.610;2023-08-21T03:32:17;27.00;;;18.58;;
9306;SDS011;4691;47.612;7.610;2023-08-21T03:34:43;26.80;;;18.08;;
9306;SDS011;4691;47.612;7.610;2023-08-21T03:37:09;30.35;;;19.08;;
9306;SDS011;4691;47.612;7.610;2023-08-21T03:39:35;24.88;;;18.90;;
9306;SDS011;4691;47.612;7.610;2023-08-21T03:42:00;26.60;;;19.75;;
9306;SDS011;4691;47.612;7.610;2023-08-21T03:44:26;27.98;;;19.95;;
9306;SDS011;4691;47.612;7.610;2023-08-21T03:46:51;29.00;;;18.90;;
9306;SDS011;4691;47.612;7.610;2023-08-21T03:49:17;31.60;;;18.90;;
9306;SDS011;4691;47.612;7.610;2023-08-21T03:51:42;25.10;;;17.65;;
9306;SDS011;4691;47.612;7.610;2023-08-21T03:54:08;29.33;;;19.02;;
9306;SDS011;4691;47.612;7.610;2023-08-21T03:56:34;25.58;;;18.50;;
9306;SDS011;4691;47.612;7.610;2023-08-21T03:58:59;24.98;;;18.00;;
9306;SDS011;4691;47.612;7.610;2023-08-21T04:01:24;23.95;;;17.98;;
9306;SDS011;4691;47.612;7.610;2023-08-21T04:03:50;32.20;;;19.90;;
9306;SDS011;4691;47.612;7.610;2023-08-21T04:06:15;34.55;;;18.90;;
9306;SDS011;4691;47.612;7.610;2023-08-21T04:08:41;29.95;;;19.73;;
9306;SDS011;4691;47.612;7.610;2023-08-21T04:11:06;25.55;;;19.02;;
9306;SDS011;4691;47.612;7.610;2023-08-21T04:13:32;28.13;;;19.50;;
9306;SDS011;4691;47.612;7.610;2023-08-21T04:15:57;33.60;;;19.52;;
9306;SDS011;4691;47.612;7.610;2023-08-21T04:18:23;26.58;;;18.75;;
9306;SDS011;4691;47.612;7.610;2023-08-21T04:20:49;28.35;;;19.50;;
9306;SDS011;4691;47.612;7.610;2023-08-21T04:23:15;31.95;;;18.77;;
9306;SDS011;4691;47.612;7.610;2023-08-21T04:25:41;26.98;;;19.77;;
9306;SDS011;4691;47.612;7.610;2023-08-21T04:28:08;28.05;;;19.25;;
9306;SDS011;4691;47.612;7.610;2023-08-21T04:30:33;29.67;;;20.50;;
9306;SDS011;4691;47.612;7.610;2023-08-21T04:32:59;28.92;;;19.25;;
9306;SDS011;4691;47.612;7.610;2023-08-21T04:35:25;28.60;;;19.52;;
9306;SDS011;4691;47.612;7.610;2023-08-21T04:37:50;28.40;;;18.98;;
9306;SDS011;4691;47.612;7.610;2023-08-21T04:40:16;39.60;;;20.13;;
9306;SDS011;4691;47.612;7.610;2023-08-21T04:42:42;29.98;;;19.90;;
9306;SDS011;4691;47.612;7.610;2023-08-21T04:45:09;33.50;;;20.73;;
9306;SDS011;4691;47.612;7.610;2023-08-21T04:47:34;30.38;;;20.38;;
9306;SDS011;4691;47.612;7.610;2023-08-21T04:50:00;28.73;;;20.20;;
9306;SDS011;4691;47.612;7.610;2023-08-21T04:52:25;35.47;;;21.75;;
9306;SDS011;4691;47.612;7.610;2023-08-21T04:54:51;36.47;;;21.35;;
9306;SDS011;4691;47.612;7.610;2023-08-21T04:57:16;34.05;;;20.45;;
9306;SDS011;4691;47.612;7.610;2023-08-21T04:59:42;35.33;;;20.83;;
9306;SDS011;4691;47.612;7.610;2023-08-21T05:02:08;27.45;;;19.08;;
9306;SDS011;4691;47.612;7.610;2023-08-21T05:04:35;33.05;;;21.70;;
9306;SDS011;4691;47.612;7.610;2023-08-21T05:07:01;34.25;;;21.50;;
9306;SDS011;4691;47.612;7.610;2023-08-21T05:09:26;36.25;;;20.83;;
9306;SDS011;4691;47.612;7.610;2023-08-21T05:11:51;34.80;;;21.58;;
9306;SDS011;4691;47.612;7.610;2023-08-21T05:14:17;30.70;;;21.85;;
9306;SDS011;4691;47.612;7.610;2023-08-21T05:16:44;31.40;;;21.33;;
9306;SDS011;4691;47.612;7.610;2023-08-21T05:19:10;28.73;;;21.15;;
9306;SDS011;4691;47.612;7.610;2023-08-21T05:21:35;35.92;;;21.30;;
9306;SDS011;4691;47.612;7.610;2023-08-21T05:24:00;37.88;;;20.65;;
9306;SDS011;4691;47.612;7.610;2023-08-21T05:26:26;42.30;;;21.45;;
9306;SDS011;4691;47.612;7.610;2023-08-21T05:28:51;41.85;;;20.88;;
9306;SDS011;4691;47.612;7.610;2023-08-21T05:31:19;35.75;;;20.35;;
9306;SDS011;4691;47.612;7.610;2023-08-21T05:33:45;36.05;;;21.65;;
9306;SDS011;4691;47.612;7.610;2023-08-21T05:36:10;29.92;;;20.05;;
9306;SDS011;4691;47.612;7.610;2023-08-21T05:38:35;33.90;;;20.63;;
9306;SDS011;4691;47.612;7.610;2023-08-21T05:41:01;46.17;;;21.52;;
9306;SDS011;4691;47.612;7.610;2023-08-21T05:43:26;36.63;;;21.50;;
9306;SDS011;4691;47.612;7.610;2023-08-21T05:45:51;38.55;;;21.50;;
9306;SDS011;4691;47.612;7.610;2023-08-21T05:48:17;44.33;;;22.73;;
9306;SDS011;4691;47.612;7.610;2023-08-21T05:50:42;38.05;;;21.63;;
9306;SDS011;4691;47.612;7.610;2023-08-21T05:53:08;38.30;;;21.83;;
9306;SDS011;4691;47.612;7.610;2023-08-21T05:55:33;32.17;;;21.23;;
9306;SDS011;4691;47.612;7.610;2023-08-21T05:57:58;36.63;;;21.38;;
9306;SDS011;4691;47.612;7.610;2023-08-21T06:00:24;31.58;;;21.63;;
9306;SDS011;4691;47.612;7.610;2023-08-21T06:02:49;39.03;;;21.52;;
9306;SDS011;4691;47.612;7.610;2023-08-21T06:05:14;35.53;;;21.48;;
9306;SDS011;4691;47.612;7.610;2023-08-21T06:07:40;36.22;;;21.60;;
9306;SDS011;4691;47.612;7.610;2023-08-21T06:10:09;32.63;;;22.27;;
9306;SDS011;4691;47.612;7.610;2023-08-21T06:12:37;35.03;;;20.88;;
9306;SDS011;4691;47.612;7.610;2023-08-21T06:15:05;39.03;;;22.20;;
9306;SDS011;4691;47.612;7.610;2023-08-21T06:17:33;36.35;;;21.23;;
9306;SDS011;4691;47.612;7.610;2023-08-21T06:19:59;38.83;;;22.27;;
9306;SDS011;4691;47.612;7.610;2023-08-21T06:22:24;29.63;;;20.85;;
9306;SDS011;4691;47.612;7.610;2023-08-21T06:24:50;34.70;;;21.02;;
9306;SDS011;4691;47.612;7.610;2023-08-21T06:27:15;33.22;;;22.65;;
9306;SDS011;4691;47.612;7.610;2023-08-21T06:29:40;29.35;;;21.73;;
9306;SDS011;4691;47.612;7.610;2023-08-21T06:32:06;30.77;;;20.85;;
9306;SDS011;4691;47.612;7.610;2023-08-21T06:34:31;34.35;;;20.65;;
9306;SDS011;4691;47.612;7.610;2023-08-21T06:36:56;36.72;;;20.80;;
9306;SDS011;4691;47.612;7.610;2023-08-21T06:39:22;30.25;;;19.10;;
9306;SDS011;4691;47.612;7.610;2023-08-21T06:41:47;32.97;;;20.27;;
9306;SDS011;4691;47.612;7.610;2023-08-21T06:44:13;35.53;;;20.27;;
9306;SDS011;4691;47.612;7.610;2023-08-21T06:46:38;30.60;;;19.30;;
9306;SDS011;4691;47.612;7.610;2023-08-21T06:49:03;24.55;;;19.13;;
9306;SDS011;4691;47.612;7.610;2023-08-21T06:51:28;32.15;;;21.05;;
9306;SDS011;4691;47.612;7.610;2023-08-21T06:53:54;28.65;;;19.70;;
9306;SDS011;4691;47.612;7.610;2023-08-21T06:56:19;26.02;;;19.95;;
9306;SDS011;4691;47.612;7.610;2023-08-21T06:58:44;29.30;;;19.33;;
9306;SDS011;4691;47.612;7.610;2023-08-21T07:01:10;32.88;;;20.85;;
9306;SDS011;4691;47.612;7.610;2023-08-21T07:03:35;29.70;;;19.50;;
9306;SDS011;4691;47.612;7.610;2023-08-21T07:06:00;32.17;;;20.50;;
9306;SDS011;4691;47.612;7.610;2023-08-21T07:08:26;37.38;;;21.77;;
9306;SDS011;4691;47.612;7.610;2023-08-21T07:10:54;32.72;;;20.60;;
9306;SDS011;4691;47.612;7.610;2023-08-21T07:13:19;30.17;;;21.20;;
9306;SDS011;4691;47.612;7.610;2023-08-21T07:15:45;40.53;;;20.20;;
9306;SDS011;4691;47.612;7.610;2023-08-21T07:18:11;32.55;;;19.60;;
9306;SDS011;4691;47.612;7.610;2023-08-21T07:20:37;30.08;;;20.77;;
9306;SDS011;4691;47.612;7.610;2023-08-21T07:23:02;36.17;;;20.30;;
9306;SDS011;4691;47.612;7.610;2023-08-21T07:25:28;36.05;;;20.73;;
9306;SDS011;4691;47.612;7.610;2023-08-21T07:27:53;32.38;;;20.95;;
9306;SDS011;4691;47.612;7.610;2023-08-21T07:30:19;30.00;;;20.08;;
9306;SDS011;4691;47.612;7.610;2023-08-21T07:32:45;38.22;;;22.38;;
9306;SDS011;4691;47.612;7.610;2023-08-21T07:35:10;39.30;;;21.13;;
9306;SDS011;4691;47.612;7.610;2023-08-21T07:37:36;38.67;;;20.83;;
9306;SDS011;4691;47.612;7.610;2023-08-21T07:40:01;29.77;;;19.67;;
9306;SDS011;4691;47.612;7.610;2023-08-21T07:42:27;34.13;;;20.23;;
9306;SDS011;4691;47.612;7.610;2023-08-21T07:44:52;31.67;;;21.05;;
9306;SDS011;4691;47.612;7.610;2023-08-21T07:47:18;33.10;;;19.70;;
9306;SDS011;4691;47.612;7.610;2023-08-21T07:49:43;30.98;;;20.42;;
9306;SDS011;4691;47.612;7.610;2023-08-21T07:52:08;32.78;;;20.33;;
9306;SDS011;4691;47.612;7.610;2023-08-21T07:54:34;37.08;;;21.00;;
9306;SDS011;4691;47.612;7.610;2023-08-21T07:56:59;31.10;;;20.63;;
9306;SDS011;4691;47.612;7.610;2023-08-21T07:59:24;36.53;;;20.95;;
9306;SDS011;4691;47.612;7.610;2023-08-21T08:01:50;38.53;;;21.02;;
9306;SDS011;4691;47.612;7.610;2023-08-21T08:04:15;41.00;;;20.50;;
9306;SDS011;4691;47.612;7.610;2023-08-21T08:06:41;33.10;;;19.45;;
9306;SDS011;4691;47.612;7.610;2023-08-21T08:09:06;31.98;;;20.10;;
9306;SDS011;4691;47.612;7.610;2023-08-21T08:11:32;38.28;;;20.67;;
9306;SDS011;4691;47.612;7.610;2023-08-21T08:13:58;26.00;;;18.92;;
9306;SDS011;4691;47.612;7.610;2023-08-21T08:16:24;28.45;;;20.50;;
9306;SDS011;4691;47.612;7.610;2023-08-21T08:18:49;31.13;;;18.83;;
9306;SDS011;4691;47.612;7.610;2023-08-21T08:21:14;30.55;;;19.67;;
9306;SDS011;4691;47.612;7.610;2023-08-21T08:23:40;29.42;;;19.23;;
9306;SDS011;4691;47.612;7.610;2023-08-21T08:26:05;33.80;;;19.75;;
9306;SDS011;4691;47.612;7.610;2023-08-21T08:28:30;36.22;;;18.75;;
9306;SDS011;4691;47.612;7.610;2023-08-21T08:30:56;35.97;;;20.67;;
9306;SDS011;4691;47.612;7.610;2023-08-21T08:33:22;32.47;;;19.92;;
9306;SDS011;4691;47.612;7.610;2023-08-21T08:35:48;29.63;;;19.13;;
9306;SDS011;4691;47.612;7.610;2023-08-21T08:38:14;27.33;;;18.80;;
9306;SDS011;4691;47.612;7.610;2023-08-21T08:40:43;34.58;;;19.85;;
9306;SDS011;4691;47.612;7.610;2023-08-21T08:43:10;28.83;;;18.58;;
9306;SDS011;4691;47.612;7.610;2023-08-21T08:45:36;29.73;;;18.52;;
9306;SDS011;4691;47.612;7.610;2023-08-21T08:48:02;26.98;;;18.67;;
9306;SDS011;4691;47.612;7.610;2023-08-21T08:50:29;28.30;;;18.77;;
9306;SDS011;4691;47.612;7.610;2023-08-21T08:52:56;29.42;;;17.92;;
9306;SDS011;4691;47.612;7.610;2023-08-21T08:55:22;28.70;;;17.80;;
9306;SDS011;4691;47.612;7.610;2023-08-21T08:57:48;29.35;;;18.02;;
9306;SDS011;4691;47.612;7.610;2023-08-21T09:00:14;33.40;;;20.67;;
9306;SDS011;4691;47.612;7.610;2023-08-21T09:02:40;48.75;;;19.02;;
9306;SDS011;4691;47.612;7.610;2023-08-21T09:05:05;30.90;;;18.67;;
9306;SDS011;4691;47.612;7.610;2023-08-21T09:07:31;29.48;;;18.27;;
9306;SDS011;4691;47.612;7.610;2023-08-21T09:09:57;31.85;;;18.67;;
9306;SDS011;4691;47.612;7.610;2023-08-21T09:12:22;32.03;;;17.77;;
9306;SDS011;4691;47.612;7.610;2023-08-21T09:14:48;27.80;;;18.25;;
9306;SDS011;4691;47.612;7.610;2023-08-21T09:17:13;29.15;;;18.48;;
9306;SDS011;4691;47.612;7.610;2023-08-21T09:19:39;32.85;;;17.73;;
9306;SDS011;4691;47.612;7.610;2023-08-21T09:22:15;32.10;;;18.83;;
9306;SDS011;4691;47.612;7.610;2023-08-21T09:27:31;26.60;;;17.02;;
9306;SDS011;4691;47.612;7.610;2023-08-21T09:30:03;24.88;;;17.48;;
9306;SDS011;4691;47.612;7.610;2023-08-21T09:35:22;25.50;;;17.40;;
9306;SDS011;4691;47.612;7.610;2023-08-21T09:37:48;29.30;;;16.65;;
9306;SDS011;4691;47.612;7.610;2023-08-21T09:40:14;27.10;;;16.33;;
9306;SDS011;4691;47.612;7.610;2023-08-21T09:42:40;23.98;;;16.08;;
9306;SDS011;4691;47.612;7.610;2023-08-21T09:45:06;20.83;;;15.35;;
9306;SDS011;4691;47.612;7.610;2023-08-21T09:47:32;23.85;;;16.05;;
9306;SDS011;4691;47.612;7.610;2023-08-21T09:49:58;26.20;;;17.50;;
9306;SDS011;4691;47.612;7.610;2023-08-21T09:52:24;24.15;;;16.23;;
9306;SDS011;4691;47.612;7.610;2023-08-21T09:54:52;19.90;;;14.90;;
9306;SDS011;4691;47.612;7.610;2023-08-21T09:57:18;18.85;;;15.73;;
9306;SDS011;4691;47.612;7.610;2023-08-21T09:59:48;21.75;;;15.30;;
9306;SDS011;4691;47.612;7.610;2023-08-21T10:02:17;18.33;;;14.00;;
9306;SDS011;4691;47.612;7.610;2023-08-21T10:04:43;21.48;;;13.82;;
9306;SDS011;4691;47.612;7.610;2023-08-21T10:07:10;19.23;;;13.25;;
9306;SDS011;4691;47.612;7.610;2023-08-21T10:09:37;20.20;;;13.40;;
9306;SDS011;4691;47.612;7.610;2023-08-21T10:12:05;20.55;;;13.20;;
9306;SDS011;4691;47.612;7.610;2023-08-21T10:14:33;17.55;;;13.25;;
9306;SDS011;4691;47.612;7.610;2023-08-21T10:16:59;21.50;;;12.75;;
9306;SDS011;4691;47.612;7.610;2023-08-21T10:19:30;20.30;;;13.05;;
9306;SDS011;4691;47.612;7.610;2023-08-21T10:21:56;29.23;;;13.07;;
9306;SDS011;4691;47.612;7.610;2023-08-21T10:24:27;16.13;;;13.05;;
9306;SDS011;4691;47.612;7.610;2023-08-21T10:27:00;21.23;;;13.02;;
9306;SDS011;4691;47.612;7.610;2023-08-21T10:29:26;23.25;;;12.43;;
9306;SDS011;4691;47.612;7.610;2023-08-21T10:32:04;20.67;;;11.82;;
9306;SDS011;4691;47.612;7.610;2023-08-21T10:34:33;15.95;;;12.43;;
9306;SDS011;4691;47.612;7.610;2023-08-21T10:37:11;16.02;;;12.30;;
9306;SDS011;4691;47.612;7.610;2023-08-21T10:39:45;23.90;;;12.50;;
9306;SDS011;4691;47.612;7.610;2023-08-21T10:42:19;17.38;;;12.57;;
9306;SDS011;4691;47.612;7.610;2023-08-21T10:45:05;18.77;;;12.75;;
9306;SDS011;4691;47.612;7.610;2023-08-21T10:47:35;17.05;;;11.75;;
9306;SDS011;4691;47.612;7.610;2023-08-21T10:50:05;16.35;;;11.63;;
9306;SDS011;4691;47.612;7.610;2023-08-21T10:52:36;23.70;;;12.07;;
9306;SDS011;4691;47.612;7.610;2023-08-21T10:55:03;17.92;;;12.25;;
9306;SDS011;4691;47.612;7.610;2023-08-21T10:57:29;19.75;;;12.00;;
9306;SDS011;4691;47.612;7.610;2023-08-21T10:59:56;16.67;;;10.85;;
9306;SDS011;4691;47.612;7.610;2023-08-21T11:02:24;17.25;;;11.25;;
9306;SDS011;4691;47.612;7.610;2023-08-21T11:04:51;17.17;;;11.10;;
9306;SDS011;4691;47.612;7.610;2023-08-21T11:07:17;19.23;;;11.32;;
9306;SDS011;4691;47.612;7.610;2023-08-21T11:09:43;16.88;;;11.38;;
9306;SDS011;4691;47.612;7.610;2023-08-21T11:12:09;16.38;;;10.57;;
9306;SDS011;4691;47.612;7.610;2023-08-21T11:14:36;13.32;;;10.98;;
9306;SDS011;4691;47.612;7.610;2023-08-21T11:17:02;14.48;;;10.82;;
9306;SDS011;4691;47.612;7.610;2023-08-21T11:19:32;16.30;;;10.32;;
9306;SDS011;4691;47.612;7.610;2023-08-21T11:21:59;12.68;;;10.35;;
9306;SDS011;4691;47.612;7.610;2023-08-21T11:27:03;11.75;;;9.30;;
9306;SDS011;4691;47.612;7.610;2023-08-21T11:29:36;15.30;;;10.05;;
9306;SDS011;4691;47.612;7.610;2023-08-21T11:32:03;12.40;;;9.85;;
9306;SDS011;4691;47.612;7.610;2023-08-21T11:34:33;16.25;;;10.88;;
9306;SDS011;4691;47.612;7.610;2023-08-21T11:36:58;15.88;;;10.02;;
9306;SDS011;4691;47.612;7.610;2023-08-21T11:39:24;13.60;;;9.75;;
9306;SDS011;4691;47.612;7.610;2023-08-21T11:41:57;11.65;;;9.98;;
9306;SDS011;4691;47.612;7.610;2023-08-21T11:44:23;13.48;;;9.55;;
9306;SDS011;4691;47.612;7.610;2023-08-21T11:46:52;19.73;;;10.40;;
9306;SDS011;4691;47.612;7.610;2023-08-21T11:49:20;17.02;;;9.90;;
9306;SDS011;4691;47.612;7.610;2023-08-21T11:51:47;14.82;;;9.38;;
9306;SDS011;4691;47.612;7.610;2023-08-21T11:54:12;14.30;;;8.70;;
9306;SDS011;4691;47.612;7.610;2023-08-21T11:56:38;12.98;;;8.75;;
9306;SDS011;4691;47.612;7.610;2023-08-21T11:59:04;16.77;;;9.23;;
9306;SDS011;4691;47.612;7.610;2023-08-21T12:01:32;15.32;;;9.65;;
9306;SDS011;4691;47.612;7.610;2023-08-21T12:03:58;20.95;;;9.70;;
9306;SDS011;4691;47.612;7.610;2023-08-21T12:06:24;16.05;;;8.77;;
9306;SDS011;4691;47.612;7.610;2023-08-21T12:08:50;23.35;;;9.00;;
9306;SDS011;4691;47.612;7.610;2023-08-21T12:11:16;16.42;;;9.15;;
9306;SDS011;4691;47.612;7.610;2023-08-21T12:13:41;15.88;;;9.20;;
9306;SDS011;4691;47.612;7.610;2023-08-21T12:16:06;17.42;;;9.63;;
9306;SDS011;4691;47.612;7.610;2023-08-21T12:18:32;21.25;;;10.23;;
9306;SDS011;4691;47.612;7.610;2023-08-21T12:20:57;13.93;;;10.05;;
9306;SDS011;4691;47.612;7.610;2023-08-21T12:23:22;13.48;;;9.30;;
9306;SDS011;4691;47.612;7.610;2023-08-21T12:25:48;15.77;;;9.40;;
9306;SDS011;4691;47.612;7.610;2023-08-21T12:28:13;14.18;;;9.20;;
9306;SDS011;4691;47.612;7.610;2023-08-21T12:30:39;17.52;;;9.07;;
9306;SDS011;4691;47.612;7.610;2023-08-21T12:33:04;14.48;;;8.80;;
9306;SDS011;4691;47.612;7.610;2023-08-21T12:35:29;14.20;;;8.97;;
9306;SDS011;4691;47.612;7.610;2023-08-21T12:37:56;16.23;;;8.45;;
9306;SDS011;4691;47.612;7.610;2023-08-21T12:40:23;17.60;;;9.27;;
9306;SDS011;4691;47.612;7.610;2023-08-21T12:42:48;16.15;;;8.77;;
9306;SDS011;4691;47.612;7.610;2023-08-21T12:45:14;13.07;;;8.52;;
9306;SDS011;4691;47.612;7.610;2023-08-21T12:47:40;14.75;;;8.60;;
9306;SDS011;4691;47.612;7.610;2023-08-21T12:50:05;18.13;;;8.70;;
9306;SDS011;4691;47.612;7.610;2023-08-21T12:52:31;18.23;;;9.07;;
9306;SDS011;4691;47.612;7.610;2023-08-21T12:54:56;19.25;;;8.80;;
9306;SDS011;4691;47.612;7.610;2023-08-21T12:57:22;16.17;;;7.93;;
9306;SDS011;4691;47.612;7.610;2023-08-21T12:59:47;16.00;;;8.32;;
9306;SDS011;4691;47.612;7.610;2023-08-21T13:02:12;12.37;;;8.40;;
9306;SDS011;4691;47.612;7.610;2023-08-21T13:04:37;21.20;;;8.77;;
9306;SDS011;4691;47.612;7.610;2023-08-21T13:07:03;15.70;;;8.50;;
9306;SDS011;4691;47.612;7.610;2023-08-21T13:09:28;19.90;;;8.90;;
9306;SDS011;4691;47.612;7.610;2023-08-21T13:11:54;17.15;;;8.15;;
9306;SDS011;4691;47.612;7.610;2023-08-21T13:14:19;16.60;;;8.88;;
9306;SDS011;4691;47.612;7.610;2023-08-21T13:16:45;15.93;;;7.80;;
9306;SDS011;4691;47.612;7.610;2023-08-21T13:19:10;19.17;;;8.52;;
9306;SDS011;4691;47.612;7.610;2023-08-21T13:21:36;17.35;;;7.93;;
9306;SDS011;4691;47.612;7.610;2023-08-21T13:24:02;14.85;;;6.95;;
9306;SDS011;4691;47.612;7.610;2023-08-21T13:26:27;17.95;;;7.40;;
9306;SDS011;4691;47.612;7.610;2023-08-21T13:28:54;19.92;;;7.93;;
9306;SDS011;4691;47.612;7.610;2023-08-21T13:31:20;14.63;;;7.00;;
9306;SDS011;4691;47.612;7.610;2023-08-21T13:33:48;14.87;;;7.00;;
9306;SDS011;4691;47.612;7.610;2023-08-21T13:36:16;15.10;;;7.68;;
9306;SDS011;4691;47.612;7.610;2023-08-21T13:38:43;13.70;;;7.38;;
9306;SDS011;4691;47.612;7.610;2023-08-21T13:41:09;14.95;;;7.38;;
9306;SDS011;4691;47.612;7.610;2023-08-21T13:43:35;15.18;;;8.05;;
9306;SDS011;4691;47.612;7.610;2023-08-21T13:46:01;16.20;;;7.57;;
9306;SDS011;4691;47.612;7.610;2023-08-21T13:48:28;13.63;;;7.90;;
9306;SDS011;4691;47.612;7.610;2023-08-21T13:50:55;13.25;;;7.97;;
9306;SDS011;4691;47.612;7.610;2023-08-21T13:53:20;11.85;;;7.82;;
9306;SDS011;4691;47.612;7.610;2023-08-21T13:55:45;12.23;;;7.33;;
9306;SDS011;4691;47.612;7.610;2023-08-21T13:58:11;14.45;;;7.80;;
9306;SDS011;4691;47.612;7.610;2023-08-21T14:00:36;12.20;;;7.47;;
9306;SDS011;4691;47.612;7.610;2023-08-21T14:03:02;14.60;;;7.82;;
9306;SDS011;4691;47.612;7.610;2023-08-21T14:05:27;12.63;;;7.53;;
9306;SDS011;4691;47.612;7.610;2023-08-21T14:07:52;15.68;;;7.13;;
9306;SDS011;4691;47.612;7.610;2023-08-21T14:10:18;12.02;;;7.53;;
9306;SDS011;4691;47.612;7.610;2023-08-21T14:12:43;13.35;;;7.25;;
9306;SDS011;4691;47.612;7.610;2023-08-21T14:15:09;11.25;;;7.75;;
9306;SDS011;4691;47.612;7.610;2023-08-21T14:17:35;12.88;;;7.68;;
9306;SDS011;4691;47.612;7.610;2023-08-21T14:20:01;13.02;;;7.50;;
9306;SDS011;4691;47.612;7.610;2023-08-21T14:22:27;13.52;;;7.72;;
9306;SDS011;4691;47.612;7.610;2023-08-21T14:24:52;12.98;;;7.63;;
9306;SDS011;4691;47.612;7.610;2023-08-21T14:27:18;11.65;;;7.32;;
9306;SDS011;4691;47.612;7.610;2023-08-21T14:29:43;12.93;;;8.13;;
9306;SDS011;4691;47.612;7.610;2023-08-21T14:32:09;17.17;;;7.85;;
9306;SDS011;4691;47.612;7.610;2023-08-21T14:34:34;18.38;;;7.80;;
9306;SDS011;4691;47.612;7.610;2023-08-21T14:37:00;11.82;;;7.10;;
9306;SDS011;4691;47.612;7.610;2023-08-21T14:39:25;14.95;;;7.18;;
9306;SDS011;4691;47.612;7.610;2023-08-21T14:41:54;9.45;;;7.40;;
9306;SDS011;4691;47.612;7.610;2023-08-21T14:44:21;8.15;;;6.68;;
9306;SDS011;4691;47.612;7.610;2023-08-21T14:46:47;17.58;;;6.68;;
9306;SDS011;4691;47.612;7.610;2023-08-21T14:49:12;10.73;;;6.60;;
9306;SDS011;4691;47.612;7.610;2023-08-21T14:51:38;11.38;;;6.75;;
9306;SDS011;4691;47.612;7.610;2023-08-21T14:54:04;14.93;;;7.20;;
9306;SDS011;4691;47.612;7.610;2023-08-21T14:56:29;15.77;;;7.78;;
9306;SDS011;4691;47.612;7.610;2023-08-21T14:58:55;14.98;;;6.55;;